Turvania, Brazil
Current Conditions -  °F | °C
As of 12:00 PM on Sunday 25 Jan 2015 (Local Time) from SBGO Reporting Station
Overcast Overcast  
Wind Chill: 75°   Ceiling: 8000
Heat Index: 75°   Visibility: 6mi
Dew Point: 61°   Wind: 10mph
Humidity: 61%   Direction: 330°NNW
Pressure: 30.09"   Gusts: NA
Location:  16.61°S, 50.13°W
Report Text: SBGO 251400Z 33009KT 9999 FEW023 OVC080 24/16 Q1019
Loading
Personal Weather Stations






























Interactive Weather Map New forecast layout! Learn more

10-Day Weather Forecast

Advertisements
Track Severe Weather on mobile